Time;durP1;ratioP1;P1;durP2;ratioP2;P2;SDS_P1;SDS_P2;PMS_P1;PMS_P2;Temp;Humidity;BMP_temperature;BMP_pressure;BME280_temperature;BME280_humidity;BME280_pressure;Samples;Min_cycle;Max_cycle;Signal;HPM_P1;HPM_P2
2021/06/20 04:07:30;;;;;;;20.40;16.08;;;24.50;99.90;;;;;;4985920;28;20178;-85
2021/06/20 04:42:27;;;;;;;;;;;;;;;;;;;;;
2021/06/20 05:05:51;;;;;;;;;;;;;;;;;;;;;
2021/06/20 07:37:39;;;;;;;;;;;;;;;;;;;;;
2021/06/20 08:31:29;;;;;;;;;;;34.70;99.90;;;;;;4920358;29;20080;-87
2021/06/20 08:52:05;;;;;;;28.15;9.85;;;36.40;99.90;;;;;;4793506;29;20081;-85
2021/06/20 09:32:30;;;;;;;;;;;34.60;99.90;;;;;;4865843;29;20044;-89
2021/06/20 09:42:48;;;;;;;;;;;;;;;;;;;;;
2021/06/20 11:53:02;;;;;;;12.13;8.98;;;32.80;99.90;;;;;;4998625;23;20072;-77
2021/06/20 11:55:33;;;;;;;15.27;9.55;;;33.10;99.90;;;;;;4992706;28;20113;-77
2021/06/20 11:58:07;;;;;;;23.38;9.85;;;33.30;99.90;;;;;;5000367;28;20023;-77
2021/06/20 12:00:34;;;;;;;13.07;8.73;;;33.50;99.90;;;;;;4990287;28;20365;-78
2021/06/20 12:03:01;;;;;;;16.48;9.25;;;33.60;99.90;;;;;;4998532;28;20116;-77
2021/06/20 12:05:28;;;;;;;16.63;9.65;;;33.70;99.90;;;;;;4998269;28;20030;-77
2021/06/20 12:07:58;;;;;;;11.43;8.23;;;33.50;99.90;;;;;;4990833;28;20045;-78
2021/06/20 12:10:24;;;;;;;11.77;8.07;;;33.30;99.90;;;;;;4990860;28;20033;-77
2021/06/20 12:13:06;;;;;;;14.82;8.77;;;33.30;99.90;;;;;;4991300;28;20026;-77
2021/06/20 12:15:34;;;;;;;19.02;8.40;;;33.10;99.90;;;;;;4993435;28;20034;-77
2021/06/20 12:18:07;;;;;;;12.40;8.18;;;32.70;99.90;;;;;;4993400;28;20386;-76
2021/06/20 12:20:42;;;;;;;13.30;7.95;;;32.30;99.90;;;;;;4993448;28;20423;-76
2021/06/20 12:23:20;;;;;;;15.00;8.27;;;32.00;99.90;;;;;;4992930;28;20027;-77
2021/06/20 12:25:48;;;;;;;11.85;8.65;;;31.90;99.90;;;;;;4992810;28;20026;-77
2021/06/20 12:28:16;;;;;;;13.80;8.45;;;31.80;99.90;;;;;;4992867;28;20022;-77
2021/06/20 12:30:43;;;;;;;11.85;8.32;;;31.70;99.90;;;;;;4993645;28;20025;-77
2021/06/20 12:33:11;;;;;;;14.95;8.65;;;31.70;99.90;;;;;;4993333;28;20030;-77
2021/06/20 12:35:37;;;;;;;18.65;8.75;;;31.70;99.90;;;;;;4992586;28;20028;-77
2021/06/20 12:38:16;;;;;;;11.48;8.25;;;31.80;99.90;;;;;;4992945;28;20097;-77
2021/06/20 12:40:42;;;;;;;21.98;8.93;;;31.80;99.90;;;;;;4993304;28;20030;-77
2021/06/20 12:43:14;;;;;;;13.93;7.70;;;31.90;99.90;;;;;;4993084;28;20098;-77
2021/06/20 12:45:39;;;;;;;17.98;8.45;;;32.20;99.90;;;;;;4993088;28;20030;-76
2021/06/20 12:48:20;;;;;;;18.35;8.13;;;32.30;99.90;;;;;;4993182;28;20022;-76
2021/06/20 12:50:51;;;;;;;23.63;7.65;;;32.40;99.90;;;;;;4993164;28;20395;-77
2021/06/20 12:53:43;;;;;;;14.90;7.43;;;32.50;99.90;;;;;;4991218;28;20089;-77
2021/06/20 12:56:24;;;;;;;12.88;7.53;;;32.70;99.90;;;;;;4993379;28;20025;-77
2021/06/20 12:59:00;;;;;;;15.63;6.80;;;32.70;99.90;;;;;;4992814;28;20084;-77
2021/06/20 13:01:26;;;;;;;9.82;6.30;;;32.70;99.90;;;;;;4993330;28;20090;-77
2021/06/20 13:03:53;;;;;;;17.27;6.35;;;32.80;99.90;;;;;;4992128;28;20019;-78
2021/06/20 13:06:22;;;;;;;15.27;6.25;;;32.90;99.90;;;;;;4993572;28;20019;-77
2021/06/20 13:08:48;;;;;;;12.00;6.28;;;33.10;99.90;;;;;;4993295;28;20023;-77
2021/06/20 13:11:14;;;;;;;17.63;7.07;;;33.00;99.90;;;;;;4993421;28;20030;-78
2021/06/20 13:13:39;;;;;;;13.10;6.57;;;33.00;99.90;;;;;;4992971;28;20109;-78
2021/06/20 13:16:05;;;;;;;17.67;7.40;;;33.00;99.90;;;;;;4992876;28;20034;-77
2021/06/20 13:18:31;;;;;;;10.70;6.68;;;33.10;99.90;;;;;;4993351;28;20033;-77
2021/06/20 13:20:57;;;;;;;11.27;6.60;;;33.10;99.90;;;;;;4993307;28;20560;-77
2021/06/20 13:23:23;;;;;;;13.45;6.95;;;33.20;99.90;;;;;;4993505;28;20019;-77
2021/06/20 13:25:52;;;;;;;18.20;7.55;;;33.10;99.90;;;;;;4993189;28;20061;-77
2021/06/20 13:28:19;;;;;;;12.10;7.32;;;32.90;99.90;;;;;;4993286;28;20488;-77
2021/06/20 13:30:45;;;;;;;18.95;7.30;;;32.50;99.90;;;;;;4993025;28;20022;-77
2021/06/20 13:33:10;;;;;;;10.65;7.00;;;32.30;99.90;;;;;;4992933;28;20021;-77
2021/06/20 13:35:36;;;;;;;19.73;7.57;;;32.30;99.90;;;;;;4993085;28;20081;-77
2021/06/20 13:38:02;;;;;;;15.85;7.68;;;32.30;99.90;;;;;;4993240;28;20027;-78
2021/06/20 13:40:30;;;;;;;9.93;7.05;;;32.30;99.90;;;;;;4992968;28;20030;-77
2021/06/20 13:42:56;;;;;;;8.80;7.25;;;32.40;99.90;;;;;;4992948;28;20011;-78
2021/06/20 13:45:23;;;;;;;11.05;7.43;;;32.60;99.90;;;;;;4993152;28;20060;-78
2021/06/20 13:47:51;;;;;;;25.95;7.72;;;32.60;99.90;;;;;;4992401;28;20054;-77
2021/06/20 13:50:18;;;;;;;18.95;7.45;;;32.60;99.90;;;;;;4992889;28;20030;-77
2021/06/20 13:52:44;;;;;;;14.30;7.60;;;32.60;99.90;;;;;;4992900;28;20114;-77
2021/06/20 13:55:11;;;;;;;12.40;7.90;;;32.60;99.90;;;;;;4993138;28;20559;-77
2021/06/20 13:57:38;;;;;;;13.38;7.50;;;32.50;99.90;;;;;;4992762;28;20040;-77
2021/06/20 14:00:06;;;;;;;16.50;7.65;;;32.40;99.90;;;;;;4992765;28;20037;-77
2021/06/20 14:02:34;;;;;;;14.55;8.70;;;32.50;99.90;;;;;;4991543;28;20084;-77
2021/06/20 14:05:00;;;;;;;11.48;7.80;;;32.50;99.90;;;;;;4992107;28;20023;-77
2021/06/20 14:07:26;;;;;;;15.82;7.00;;;32.50;99.90;;;;;;4992142;28;20106;-77
2021/06/20 14:09:53;;;;;;;18.88;7.85;;;32.40;99.90;;;;;;4992828;28;20479;-77
2021/06/20 14:12:20;;;;;;;14.07;8.05;;;32.50;99.90;;;;;;4991887;28;20023;-77
2021/06/20 14:14:46;;;;;;;14.57;7.93;;;32.60;99.90;;;;;;4991827;28;20026;-77
2021/06/20 14:17:12;;;;;;;16.42;7.20;;;32.60;99.90;;;;;;4991839;28;20170;-77
2021/06/20 14:19:37;;;;;;;11.65;6.78;;;32.70;99.90;;;;;;4992360;28;20476;-76
2021/06/20 14:22:03;;;;;;;12.77;7.22;;;32.90;99.90;;;;;;4991749;28;20029;-77
2021/06/20 14:24:29;;;;;;;11.23;6.97;;;33.00;99.90;;;;;;4992001;28;20018;-76
2021/06/20 14:26:55;;;;;;;12.57;6.93;;;33.20;99.90;;;;;;4992049;28;20494;-77
2021/06/20 14:29:20;;;;;;;15.88;6.72;;;33.20;99.90;;;;;;4995736;28;20105;-77
2021/06/20 14:31:46;;;;;;;12.95;7.20;;;32.90;99.90;;;;;;4995404;28;20030;-77
2021/06/20 14:34:12;;;;;;;12.77;7.50;;;32.80;99.90;;;;;;4993914;28;20030;-77
2021/06/20 14:36:38;;;;;;;15.48;7.18;;;32.50;99.90;;;;;;4995418;28;20061;-76
2021/06/20 14:39:04;;;;;;;8.25;6.35;;;32.20;99.90;;;;;;4995132;28;20046;-77
2021/06/20 14:41:30;;;;;;;23.15;6.85;;;32.00;99.90;;;;;;4995446;28;20031;-78
2021/06/20 14:43:55;;;;;;;13.18;6.05;;;32.00;99.90;;;;;;4994379;28;20073;-76
2021/06/20 14:46:21;;;;;;;12.98;6.00;;;31.80;99.90;;;;;;4994852;28;20045;-77
2021/06/20 14:48:47;;;;;;;16.33;6.18;;;31.70;99.90;;;;;;4995241;28;20015;-77
2021/06/20 14:51:12;;;;;;;16.88;5.93;;;31.60;99.90;;;;;;4994143;28;20125;-75
2021/06/20 14:53:38;;;;;;;13.05;6.30;;;31.70;99.90;;;;;;4994404;28;20089;-77
2021/06/20 14:56:04;;;;;;;26.27;7.05;;;31.70;99.90;;;;;;4994017;28;20081;-77
2021/06/20 14:58:30;;;;;;;23.15;7.10;;;31.60;99.90;;;;;;4994368;28;20060;-77
2021/06/20 15:00:56;;;;;;;11.98;7.05;;;31.60;99.90;;;;;;4976747;28;20042;-77
2021/06/20 15:03:21;;;;;;;17.00;6.60;;;31.60;99.90;;;;;;4994837;28;20034;-77
2021/06/20 15:05:47;;;;;;;15.35;6.25;;;31.60;99.90;;;;;;4994532;28;20548;-75
2021/06/20 15:08:14;;;;;;;13.85;6.80;;;31.70;99.90;;;;;;4993593;28;20535;-79
2021/06/20 15:10:39;;;;;;;16.92;8.25;;;31.70;99.90;;;;;;4994413;28;20030;-77
2021/06/20 15:13:05;;;;;;;9.65;6.53;;;31.50;99.90;;;;;;4994477;28;20030;-76
2021/06/20 15:15:31;;;;;;;14.75;6.88;;;31.40;99.90;;;;;;4995091;28;20034;-76
2021/06/20 15:17:57;;;;;;;10.82;8.05;;;31.30;99.90;;;;;;4994729;28;20018;-76
2021/06/20 15:20:23;;;;;;;18.88;8.32;;;31.40;99.90;;;;;;4993937;28;20053;-76
2021/06/20 15:22:49;;;;;;;22.23;7.40;;;31.30;99.90;;;;;;4994665;28;20026;-76
2021/06/20 15:25:15;;;;;;;18.42;7.80;;;31.30;99.90;;;;;;4993543;28;20033;-76
2021/06/20 15:27:41;;;;;;;24.83;9.80;;;31.50;99.90;;;;;;4993735;28;20029;-76
2021/06/20 15:30:09;;;;;;;13.00;8.35;;;31.60;99.90;;;;;;4993155;28;20026;-76
2021/06/20 15:32:49;;;;;;;20.42;8.30;;;31.50;99.90;;;;;;4992451;28;20040;-77
2021/06/20 15:35:17;;;;;;;17.98;8.05;;;31.30;99.90;;;;;;4993684;28;20030;-77
2021/06/20 15:38:10;;;;;;;16.25;7.65;;;31.30;99.90;;;;;;4990041;28;20019;-77
2021/06/20 15:40:42;;;;;;;17.92;7.75;;;31.30;99.90;;;;;;4987307;28;20070;-77
2021/06/20 15:43:08;;;;;;;19.30;7.90;;;31.30;99.90;;;;;;5001463;28;20018;-77
2021/06/20 15:45:35;;;;;;;14.48;7.75;;;31.30;99.90;;;;;;5001628;28;20028;-76
2021/06/20 15:48:04;;;;;;;16.52;7.32;;;31.30;99.90;;;;;;4993548;28;20023;-77
2021/06/20 15:50:35;;;;;;;18.73;7.95;;;31.20;99.90;;;;;;4982946;28;20033;-77
2021/06/20 15:53:01;;;;;;;13.75;7.28;;;31.30;99.90;;;;;;4993215;28;20057;-76
2021/06/20 15:55:28;;;;;;;17.20;7.15;;;31.40;99.90;;;;;;4993696;28;20034;-76
2021/06/20 15:57:54;;;;;;;18.08;7.05;;;31.50;99.90;;;;;;4997436;28;20018;-76
2021/06/20 16:00:22;;;;;;;19.85;7.30;;;31.50;99.90;;;;;;4995757;28;20042;-76
2021/06/20 16:02:48;;;;;;;11.15;6.75;;;31.50;99.90;;;;;;4994124;28;20026;-75
2021/06/20 16:05:16;;;;;;;13.93;6.63;;;31.40;99.90;;;;;;4993244;28;20031;-75
2021/06/20 16:07:43;;;;;;;17.92;7.20;;;31.30;99.90;;;;;;4990473;28;20033;-76
2021/06/20 16:10:10;;;;;;;19.55;7.10;;;31.20;99.90;;;;;;4991616;28;20042;-76
2021/06/20 16:12:36;;;;;;;15.38;6.50;;;31.10;99.90;;;;;;4992592;28;20536;-77
2021/06/20 16:15:03;;;;;;;20.50;6.55;;;31.00;99.90;;;;;;4991567;28;20149;-79
2021/06/20 16:17:30;;;;;;;18.00;7.50;;;31.00;99.90;;;;;;4992294;28;20379;-77
2021/06/20 16:19:55;;;;;;;11.65;6.57;;;30.90;99.90;;;;;;4992686;28;20042;-76
2021/06/20 16:22:21;;;;;;;13.40;5.47;;;30.90;99.90;;;;;;5004498;28;20372;-76
2021/06/20 16:24:47;;;;;;;20.05;7.07;;;31.00;99.90;;;;;;4993100;28;20030;-74
2021/06/20 16:27:13;;;;;;;7.32;5.63;;;31.30;99.90;;;;;;4992824;28;20440;-75
2021/06/20 16:29:39;;;;;;;16.17;5.55;;;31.40;99.90;;;;;;4992326;28;20117;-76
2021/06/20 16:32:05;;;;;;;9.70;6.30;;;31.50;99.90;;;;;;4993996;28;20038;-75
2021/06/20 16:34:32;;;;;;;19.52;6.00;;;31.60;99.90;;;;;;4994229;28;20041;-73
2021/06/20 16:36:58;;;;;;;20.05;5.15;;;31.60;99.90;;;;;;4992197;28;20033;-74
2021/06/20 16:39:24;;;;;;;19.83;5.70;;;31.50;99.90;;;;;;4992068;28;20049;-73
2021/06/20 16:41:50;;;;;;;14.82;5.60;;;31.50;99.90;;;;;;5000353;28;20034;-72
2021/06/20 16:44:17;;;;;;;14.02;6.70;;;31.30;99.90;;;;;;4993674;28;20034;-73
2021/06/20 16:46:43;;;;;;;16.27;6.75;;;31.20;99.90;;;;;;4992253;28;20030;-74
2021/06/20 16:49:09;;;;;;;19.60;6.30;;;31.10;99.90;;;;;;4991399;28;20690;-74
2021/06/20 16:51:34;;;;;;;16.52;6.88;;;31.10;99.90;;;;;;4991668;28;20066;-75
2021/06/20 16:54:00;;;;;;;28.48;7.47;;;31.10;99.90;;;;;;4991997;28;20022;-79
2021/06/20 16:56:26;;;;;;;13.60;6.53;;;31.20;99.90;;;;;;4992102;28;20038;-76
2021/06/20 16:58:51;;;;;;;29.83;7.10;;;31.10;99.90;;;;;;4991799;28;20088;-75
2021/06/20 17:01:21;;;;;;;24.67;6.18;;;31.00;99.90;;;;;;4992148;28;20041;-73
2021/06/20 17:03:47;;;;;;;19.30;6.10;;;30.90;99.90;;;;;;4991831;28;20074;-75
2021/06/20 17:06:13;;;;;;;19.88;7.25;;;30.80;99.90;;;;;;4992047;28;20038;-72
2021/06/20 17:08:38;;;;;;;15.95;6.30;;;30.80;99.90;;;;;;4992346;28;20019;-74
2021/06/20 17:11:04;;;;;;;21.80;6.78;;;30.60;99.90;;;;;;4992129;28;20030;-73
2021/06/20 17:13:30;;;;;;;22.77;8.00;;;30.40;99.90;;;;;;4991998;28;20022;-74
2021/06/20 17:15:55;;;;;;;21.15;7.07;;;30.30;99.90;;;;;;4991579;28;20022;-72
2021/06/20 17:18:21;;;;;;;21.05;8.57;;;30.30;99.90;;;;;;4991079;28;20030;-73
2021/06/20 17:20:47;;;;;;;20.52;7.25;;;30.30;99.90;;;;;;4991861;28;20403;-75
2021/06/20 17:23:13;;;;;;;20.15;7.38;;;30.30;99.90;;;;;;4991737;28;20034;-74
2021/06/20 17:25:39;;;;;;;13.73;7.60;;;30.40;99.90;;;;;;4992017;28;20480;-76
2021/06/20 17:28:05;;;;;;;21.38;7.57;;;30.30;99.90;;;;;;4991904;28;20121;-77
2021/06/20 17:30:33;;;;;;;12.38;6.20;;;30.30;99.90;;;;;;4990417;28;20523;-75
2021/06/20 17:32:59;;;;;;;19.55;7.07;;;30.30;99.90;;;;;;4991681;28;20483;-74
2021/06/20 17:35:25;;;;;;;17.80;7.38;;;30.20;99.90;;;;;;4991043;28;20108;-73
2021/06/20 17:37:50;;;;;;;22.90;6.38;;;30.20;99.90;;;;;;4991284;28;20065;-73
2021/06/20 17:40:16;;;;;;;16.23;7.18;;;30.20;99.90;;;;;;4990211;28;20046;-73
2021/06/20 17:42:47;;;;;;;21.85;6.43;;;30.10;99.90;;;;;;4990355;28;20014;-74
2021/06/20 17:45:15;;;;;;;26.00;6.72;;;30.10;99.90;;;;;;4988367;28;20514;-72
2021/06/20 17:47:40;;;;;;;26.55;5.93;;;30.10;99.90;;;;;;4990427;28;20026;-76
2021/06/20 17:50:07;;;;;;;15.30;6.43;;;30.10;99.90;;;;;;4990373;28;20379;-76
2021/06/20 17:52:33;;;;;;;13.52;6.85;;;30.10;99.90;;;;;;4990553;28;20050;-76
2021/06/20 17:54:58;;;;;;;13.77;6.20;;;30.00;99.90;;;;;;4990070;28;20037;-73
2021/06/20 17:57:25;;;;;;;15.05;7.55;;;29.80;99.90;;;;;;4981011;28;20033;-71
2021/06/20 17:59:51;;;;;;;18.55;6.80;;;29.80;99.90;;;;;;4975407;28;20089;-75
2021/06/20 18:02:17;;;;;;;16.63;6.25;;;29.60;99.90;;;;;;4991412;28;20129;-74
2021/06/20 18:04:43;;;;;;;13.70;6.70;;;29.50;99.90;;;;;;4996229;28;20419;-75
2021/06/20 18:07:08;;;;;;;19.83;7.68;;;29.50;99.90;;;;;;4995179;28;20032;-74
2021/06/20 18:09:34;;;;;;;14.55;7.72;;;29.50;99.90;;;;;;4994491;28;20101;-75
2021/06/20 18:12:00;;;;;;;40.60;15.40;;;29.40;99.90;;;;;;4993940;28;20058;-75
2021/06/20 18:14:26;;;;;;;21.60;9.43;;;29.40;99.90;;;;;;4993555;28;20038;-74
2021/06/20 18:16:52;;;;;;;19.05;8.20;;;29.50;99.90;;;;;;4993264;28;20030;-74
2021/06/20 18:19:18;;;;;;;13.55;6.90;;;29.50;99.90;;;;;;4993970;28;20028;-74
2021/06/20 18:21:45;;;;;;;16.88;7.80;;;29.50;99.90;;;;;;4993118;28;20117;-74
2021/06/20 18:24:12;;;;;;;17.52;9.25;;;29.50;99.90;;;;;;4995498;28;20034;-75
2021/06/20 18:26:41;;;;;;;29.10;7.82;;;29.40;99.90;;;;;;4994956;28;20068;-74
2021/06/20 18:29:07;;;;;;;34.17;7.80;;;29.40;99.90;;;;;;5000986;28;20092;-75
2021/06/20 18:31:34;;;;;;;25.67;9.13;;;29.30;99.90;;;;;;4990600;28;20479;-75
2021/06/20 18:34:00;;;;;;;28.80;8.65;;;29.10;99.90;;;;;;4994332;28;20057;-74
2021/06/20 18:36:26;;;;;;;35.20;9.45;;;29.00;99.90;;;;;;4993764;28;20057;-74
2021/06/20 18:38:52;;;;;;;25.83;9.45;;;28.90;99.90;;;;;;4993555;28;20035;-74
2021/06/20 18:41:18;;;;;;;22.15;9.48;;;28.70;99.90;;;;;;4993991;28;20034;-74
2021/06/20 18:43:46;;;;;;;20.27;9.85;;;28.60;99.90;;;;;;4992300;28;20026;-75
2021/06/20 18:46:12;;;;;;;16.67;9.32;;;28.40;99.90;;;;;;4992893;28;20072;-74
2021/06/20 18:48:38;;;;;;;19.98;10.38;;;28.30;99.90;;;;;;4993498;28;20022;-74
2021/06/20 18:51:04;;;;;;;25.08;10.27;;;28.30;99.90;;;;;;4992757;28;20018;-74
2021/06/20 18:53:30;;;;;;;30.92;10.25;;;28.20;99.90;;;;;;4992793;28;20427;-73
2021/06/20 18:55:56;;;;;;;20.88;10.23;;;28.10;99.90;;;;;;4992524;28;20389;-73
2021/06/20 18:58:23;;;;;;;18.20;9.65;;;28.10;99.90;;;;;;4975161;28;20049;-74
2021/06/20 19:00:51;;;;;;;15.80;9.75;;;28.10;99.90;;;;;;4991165;28;20061;-73
2021/06/20 19:03:18;;;;;;;16.20;11.02;;;28.10;99.90;;;;;;4994292;28;20565;-74
2021/06/20 19:05:44;;;;;;;21.48;10.85;;;28.20;99.90;;;;;;4991537;28;20033;-73
2021/06/20 19:08:10;;;;;;;23.30;10.20;;;28.20;99.90;;;;;;4992853;28;20049;-73
2021/06/20 19:10:36;;;;;;;19.70;9.98;;;28.20;99.90;;;;;;4993416;28;20480;-72
2021/06/20 19:13:03;;;;;;;22.67;9.35;;;28.20;99.90;;;;;;4992885;28;20026;-73
2021/06/20 19:15:29;;;;;;;14.65;9.68;;;28.20;99.90;;;;;;4987338;28;20487;-73
2021/06/20 19:17:56;;;;;;;22.77;9.40;;;28.20;99.90;;;;;;4989985;28;20030;-74
2021/06/20 19:20:26;;;;;;;15.15;9.18;;;28.10;99.90;;;;;;4991638;28;20137;-73
2021/06/20 19:22:54;;;;;;;29.02;10.15;;;28.00;99.90;;;;;;4991822;28;20045;-73
2021/06/20 19:25:20;;;;;;;21.20;10.10;;;27.90;99.90;;;;;;4992999;28;20101;-72
2021/06/20 19:27:46;;;;;;;19.20;10.38;;;27.80;99.90;;;;;;4993951;28;20109;-72
2021/06/20 19:30:14;;;;;;;17.65;9.93;;;27.70;99.90;;;;;;4993893;28;20018;-73
2021/06/20 19:32:40;;;;;;;25.17;10.23;;;27.70;99.90;;;;;;4994048;28;20471;-72
2021/06/20 19:35:06;;;;;;;19.00;10.23;;;27.60;99.90;;;;;;4993962;28;20042;-76
2021/06/20 19:37:32;;;;;;;21.40;9.32;;;27.60;99.90;;;;;;4976355;28;20178;-73
2021/06/20 19:39:58;;;;;;;21.83;10.13;;;27.50;99.90;;;;;;4993600;28;20046;-75
2021/06/20 19:42:24;;;;;;;19.58;9.48;;;27.50;99.90;;;;;;4994064;28;20502;-75
2021/06/20 19:44:52;;;;;;;15.10;9.20;;;27.40;99.90;;;;;;4993573;28;20025;-72
2021/06/20 19:47:19;;;;;;;29.65;9.40;;;27.40;99.90;;;;;;4994018;28;20026;-75
2021/06/20 19:49:45;;;;;;;19.35;9.82;;;27.40;99.90;;;;;;4992498;28;20084;-73
2021/06/20 19:52:11;;;;;;;17.58;10.02;;;27.40;99.90;;;;;;4993346;28;20055;-74
2021/06/20 19:54:37;;;;;;;17.45;9.30;;;27.40;99.90;;;;;;4992124;28;20037;-73
2021/06/20 19:57:03;;;;;;;16.83;10.73;;;27.40;99.90;;;;;;4992964;28;20026;-73
2021/06/20 19:59:29;;;;;;;27.27;10.30;;;27.40;99.90;;;;;;4992993;28;20038;-74
2021/06/20 20:01:54;;;;;;;19.85;10.00;;;27.40;99.90;;;;;;4992910;28;20029;-72
2021/06/20 20:04:22;;;;;;;21.13;9.07;;;27.40;99.90;;;;;;4992990;28;20018;-72
2021/06/20 20:06:48;;;;;;;20.25;9.93;;;27.40;99.90;;;;;;4991034;28;20034;-74
2021/06/20 20:09:14;;;;;;;20.10;10.05;;;27.30;99.90;;;;;;4991324;28;20109;-73
2021/06/20 20:11:41;;;;;;;18.10;8.85;;;27.20;99.90;;;;;;4992129;28;20487;-73
2021/06/20 20:14:07;;;;;;;24.15;9.60;;;27.20;99.90;;;;;;4990608;28;20041;-74
2021/06/20 20:16:32;;;;;;;29.40;9.57;;;27.20;99.90;;;;;;4992011;28;20026;-72
2021/06/20 20:18:58;;;;;;;23.48;9.45;;;27.20;99.90;;;;;;4991213;28;20038;-74
2021/06/20 20:21:24;;;;;;;19.10;9.23;;;27.20;99.90;;;;;;4990597;28;20039;-73
2021/06/20 20:23:50;;;;;;;15.85;9.10;;;27.20;99.90;;;;;;4990584;28;20023;-73
2021/06/20 20:26:16;;;;;;;27.80;11.20;;;27.20;99.90;;;;;;4990784;28;20471;-74
2021/06/20 20:28:42;;;;;;;27.05;9.82;;;27.20;99.90;;;;;;4973444;28;20077;-73
2021/06/20 20:31:08;;;;;;;40.25;11.13;;;27.20;99.90;;;;;;4990667;28;20026;-75
2021/06/20 20:33:34;;;;;;;17.25;9.73;;;27.30;99.90;;;;;;4990908;28;20030;-72
2021/06/20 20:35:59;;;;;;;16.52;10.27;;;27.30;99.90;;;;;;4990910;28;20034;-74
2021/06/20 20:38:25;;;;;;;27.70;10.32;;;27.30;99.90;;;;;;4991581;28;20030;-75
2021/06/20 20:40:52;;;;;;;18.75;9.65;;;27.40;99.90;;;;;;4990863;28;20027;-73
2021/06/20 20:43:18;;;;;;;20.20;9.45;;;27.40;99.90;;;;;;4991094;28;20054;-75
2021/06/20 20:45:44;;;;;;;19.13;9.40;;;27.30;99.90;;;;;;4970827;28;20060;-76
2021/06/20 20:48:10;;;;;;;18.17;10.02;;;27.30;99.90;;;;;;4990258;28;20125;-74
2021/06/20 20:50:37;;;;;;;29.98;10.15;;;27.20;99.90;;;;;;4972750;28;20069;-74
2021/06/20 20:53:04;;;;;;;19.45;9.73;;;27.20;99.90;;;;;;4990295;28;20407;-75
2021/06/20 20:55:30;;;;;;;22.83;11.90;;;27.10;99.90;;;;;;4990599;28;20069;-74
2021/06/20 20:57:58;;;;;;;21.52;9.18;;;27.10;99.90;;;;;;4990928;28;20475;-71
2021/06/20 21:00:28;;;;;;;27.48;9.50;;;27.10;99.90;;;;;;4990315;28;20030;-75
2021/06/20 21:02:54;;;;;;;14.90;8.43;;;27.10;99.90;;;;;;4991158;28;20102;-74
2021/06/20 21:05:20;;;;;;;31.08;8.65;;;27.00;99.90;;;;;;4991744;28;20105;-74
2021/06/20 21:07:47;;;;;;;27.15;8.88;;;27.00;99.90;;;;;;4991584;28;20018;-72
2021/06/20 21:10:15;;;;;;;23.25;8.73;;;27.00;99.90;;;;;;4992330;28;20065;-73
2021/06/20 21:12:40;;;;;;;23.25;8.30;;;26.90;99.90;;;;;;4990085;28;20491;-74
2021/06/20 21:15:09;;;;;;;17.25;7.43;;;27.00;99.90;;;;;;4990941;28;20105;-75
2021/06/20 21:17:35;;;;;;;20.27;8.23;;;27.00;99.90;;;;;;4990875;28;20025;-74
2021/06/20 21:20:01;;;;;;;35.58;8.98;;;26.90;99.90;;;;;;4977203;28;20078;-74
2021/06/20 21:22:26;;;;;;;20.60;8.63;;;26.90;99.90;;;;;;4989829;28;20018;-74
2021/06/20 21:24:52;;;;;;;20.63;7.90;;;26.90;99.90;;;;;;4991670;28;20069;-73
2021/06/20 21:27:20;;;;;;;24.30;7.78;;;26.90;99.90;;;;;;4994766;28;20027;-74
2021/06/20 21:29:45;;;;;;;20.73;8.02;;;26.90;99.90;;;;;;4998791;28;20077;-72
2021/06/20 21:32:11;;;;;;;23.42;8.07;;;26.90;99.90;;;;;;4988794;28;20180;-74
2021/06/20 21:34:37;;;;;;;27.83;7.90;;;26.90;99.90;;;;;;4990605;28;20352;-74
2021/06/20 21:37:04;;;;;;;22.83;7.20;;;26.90;99.90;;;;;;4990482;28;20041;-72
2021/06/20 21:39:31;;;;;;;29.45;8.05;;;26.80;99.90;;;;;;4990487;28;20077;-74
2021/06/20 21:41:58;;;;;;;20.02;7.43;;;26.80;99.90;;;;;;4991640;28;20027;-75
2021/06/20 21:44:23;;;;;;;21.08;7.30;;;26.80;99.90;;;;;;4991585;28;20019;-74
2021/06/20 21:46:49;;;;;;;28.15;8.82;;;26.70;99.90;;;;;;5004983;28;20026;-72
2021/06/20 21:49:15;;;;;;;20.15;7.32;;;26.80;99.90;;;;;;4990864;28;20022;-74
2021/06/20 21:51:44;;;;;;;19.85;7.80;;;26.80;99.90;;;;;;4973578;28;20120;-76
2021/06/20 21:54:10;;;;;;;28.15;8.07;;;26.90;99.90;;;;;;4992173;28;20030;-76
2021/06/20 21:56:36;;;;;;;18.02;7.50;;;26.90;99.90;;;;;;4991931;28;20077;-76
2021/06/20 21:59:02;;;;;;;28.92;8.52;;;26.90;99.90;;;;;;4991535;28;20158;-76
2021/06/20 22:01:27;;;;;;;22.58;8.55;;;26.90;99.90;;;;;;4992783;28;20046;-75
2021/06/20 22:03:54;;;;;;;24.17;7.68;;;27.00;99.90;;;;;;4991263;28;20018;-74
2021/06/20 22:06:20;;;;;;;28.55;8.30;;;27.00;99.90;;;;;;4992419;28;20058;-74
2021/06/20 22:08:46;;;;;;;33.90;8.38;;;26.90;99.90;;;;;;4973415;28;20428;-75
2021/06/20 22:11:12;;;;;;;33.03;8.20;;;26.90;99.90;;;;;;4992080;28;20058;-76
2021/06/20 22:13:39;;;;;;;23.42;8.73;;;26.90;99.90;;;;;;4991430;28;20023;-74
2021/06/20 22:16:05;;;;;;;26.73;8.70;;;26.90;99.90;;;;;;4991960;28;20025;-73
2021/06/20 22:18:31;;;;;;;20.55;9.32;;;26.90;99.90;;;;;;4990902;28;20022;-73
2021/06/20 22:20:57;;;;;;;27.02;9.00;;;26.80;99.90;;;;;;4991210;28;20549;-74
2021/06/20 22:23:23;;;;;;;18.83;8.98;;;26.70;99.90;;;;;;4989724;28;20085;-75
2021/06/20 22:25:49;;;;;;;29.77;9.10;;;26.70;99.90;;;;;;4990886;28;20045;-73
2021/06/20 22:28:15;;;;;;;35.42;9.23;;;26.70;99.90;;;;;;4991136;28;20026;-73
2021/06/20 22:30:41;;;;;;;31.58;8.13;;;26.60;99.90;;;;;;4991472;28;20034;-75
2021/06/20 22:33:10;;;;;;;24.63;7.50;;;26.60;99.90;;;;;;4974004;28;20038;-73
2021/06/20 22:35:37;;;;;;;24.63;8.43;;;26.70;99.90;;;;;;4973988;28;20031;-75
2021/06/20 22:38:05;;;;;;;23.90;8.25;;;26.70;99.90;;;;;;4991660;28;20035;-73
2021/06/20 22:40:31;;;;;;;26.25;9.55;;;26.60;99.90;;;;;;4991766;28;20038;-75
2021/06/20 22:42:57;;;;;;;15.20;7.90;;;26.70;99.90;;;;;;4991534;28;20044;-74
2021/06/20 22:45:23;;;;;;;29.35;8.52;;;26.70;99.90;;;;;;4991890;28;20468;-73
2021/06/20 22:47:50;;;;;;;26.05;8.80;;;26.70;99.90;;;;;;4991655;28;20030;-74
2021/06/20 22:50:17;;;;;;;23.08;8.45;;;26.70;99.90;;;;;;4995540;28;20023;-74
2021/06/20 22:52:43;;;;;;;25.83;7.85;;;26.70;99.90;;;;;;4994557;28;20398;-75
2021/06/20 22:55:12;;;;;;;30.13;8.95;;;26.80;99.90;;;;;;4994723;28;20381;-75
2021/06/20 22:57:38;;;;;;;23.75;8.77;;;26.80;99.90;;;;;;4993854;28;20046;-74
2021/06/20 23:00:12;;;;;;;29.83;8.88;;;26.80;99.90;;;;;;4994420;28;20121;-74
2021/06/20 23:02:38;;;;;;;32.80;8.52;;;26.80;99.90;;;;;;4994331;28;20498;-75
2021/06/20 23:05:05;;;;;;;31.45;9.85;;;26.80;99.90;;;;;;4994616;28;20034;-74
2021/06/20 23:07:31;;;;;;;36.05;8.50;;;26.80;99.90;;;;;;4995250;28;20097;-74
2021/06/20 23:09:57;;;;;;;23.35;8.82;;;26.80;99.90;;;;;;4995070;28;20026;-74
2021/06/20 23:12:23;;;;;;;21.02;8.73;;;26.70;99.90;;;;;;4977531;28;20451;-74
2021/06/20 23:14:48;;;;;;;14.93;8.70;;;26.70;99.90;;;;;;4994238;28;20095;-75
2021/06/20 23:17:14;;;;;;;28.23;8.55;;;26.60;99.90;;;;;;4994513;28;20057;-73
2021/06/20 23:19:40;;;;;;;27.58;9.35;;;26.60;99.90;;;;;;4994986;28;20088;-74
2021/06/20 23:22:06;;;;;;;20.23;9.13;;;26.60;99.90;;;;;;4993630;28;20026;-73
2021/06/20 23:24:32;;;;;;;18.50;8.82;;;26.50;99.90;;;;;;4994745;28;20018;-72
2021/06/20 23:26:57;;;;;;;31.33;9.15;;;26.50;99.90;;;;;;4994655;28;20100;-74
2021/06/20 23:29:25;;;;;;;28.23;8.52;;;26.40;99.90;;;;;;4994744;28;20034;-73
2021/06/20 23:31:51;;;;;;;27.77;9.25;;;26.40;99.90;;;;;;4995028;28;20093;-73
2021/06/20 23:34:16;;;;;;;35.10;10.13;;;26.30;99.90;;;;;;4993054;28;20054;-73
2021/06/20 23:36:42;;;;;;;29.05;9.05;;;26.30;99.90;;;;;;4994207;28;20031;-74
2021/06/20 23:39:08;;;;;;;17.20;8.65;;;26.30;99.90;;;;;;4994585;28;20542;-74
2021/06/20 23:41:34;;;;;;;35.10;9.50;;;26.30;99.90;;;;;;4994167;28;20161;-74
2021/06/20 23:44:00;;;;;;;23.48;8.85;;;26.30;99.90;;;;;;4994317;28;20352;-75
2021/06/20 23:46:26;;;;;;;25.30;9.20;;;26.20;99.90;;;;;;4992966;28;20549;-73
2021/06/20 23:48:51;;;;;;;34.17;8.82;;;26.20;99.90;;;;;;4992744;28;20026;-75
2021/06/20 23:51:17;;;;;;;37.80;8.80;;;26.30;99.90;;;;;;4991468;28;20046;-75
2021/06/20 23:53:43;;;;;;;30.13;8.75;;;26.20;99.90;;;;;;4992660;28;20034;-72
2021/06/20 23:56:08;;;;;;;22.25;9.57;;;26.20;99.90;;;;;;4992609;28;20357;-73
2021/06/20 23:58:34;;;;;;;32.40;9.10;;;26.20;99.90;;;;;;4993154;28;20077;-73
